Time;durP1;ratioP1;P1;durP2;ratioP2;P2;SDS_P1;SDS_P2;PMS_P1;PMS_P2;Temp;Humidity;BMP_temperature;BMP_pressure;BME280_temperature;BME280_humidity;BME280_pressure;Samples;Min_cycle;Max_cycle;Signal;HPM_P1;HPM_P2
2021/10/15 00:00:23;;;;;;;15.25;9.13;;;;;;;7.66;59.00;100667.00;4422775;32;35068;-50
2021/10/15 00:02:51;;;;;;;16.58;10.23;;;;;;;7.60;59.26;100672.03;4422690;32;33530;-51
2021/10/15 00:05:18;;;;;;;18.37;9.48;;;;;;;7.39;59.71;100665.47;4421401;32;34204;-50
2021/10/15 00:07:46;;;;;;;15.80;9.93;;;;;;;7.39;59.70;100664.63;4422528;32;34857;-51
2021/10/15 00:10:13;;;;;;;17.25;9.68;;;;;;;7.48;59.45;100665.72;4422732;32;35043;-55
2021/10/15 00:12:41;;;;;;;16.90;9.80;;;;;;;7.32;59.80;100662.69;4422855;32;34092;-52
2021/10/15 00:15:08;;;;;;;16.48;11.02;;;;;;;7.34;59.22;100667.09;4422653;32;34627;-53
2021/10/15 00:17:36;;;;;;;20.88;10.25;;;;;;;6.98;60.35;100673.84;4422329;32;34860;-52
2021/10/15 00:20:05;;;;;;;19.37;10.63;;;;;;;7.14;60.03;100673.41;4422729;32;34232;-51
2021/10/15 00:22:33;;;;;;;18.45;10.32;;;;;;;7.06;60.45;100677.50;4422943;32;33302;-50
2021/10/15 00:25:00;;;;;;;20.45;11.63;;;;;;;7.03;60.56;100679.12;4422439;32;34603;-49
2021/10/15 00:27:28;;;;;;;24.08;11.57;;;;;;;7.14;59.88;100672.53;4422715;32;34710;-51
2021/10/15 00:29:56;;;;;;;18.45;10.15;;;;;;;7.22;59.84;100671.03;4423009;32;32880;-51
2021/10/15 00:32:24;;;;;;;19.60;10.32;;;;;;;7.18;60.10;100669.22;4423070;32;33639;-51
2021/10/15 00:34:52;;;;;;;20.25;10.43;;;;;;;7.08;60.49;100669.81;4423142;32;34705;-51
2021/10/15 00:37:19;;;;;;;20.33;9.73;;;;;;;7.13;60.14;100674.25;4422924;32;35709;-53
2021/10/15 00:39:47;;;;;;;17.12;9.75;;;;;;;7.22;59.88;100677.09;4422955;32;34250;-50
2021/10/15 00:42:14;;;;;;;21.95;10.07;;;;;;;7.03;60.33;100668.78;4421786;32;33246;-50
2021/10/15 00:44:42;;;;;;;15.85;9.38;;;;;;;7.16;59.83;100668.28;4422925;32;33840;-49
2021/10/15 00:47:10;;;;;;;15.90;9.43;;;;;;;7.03;60.17;100656.75;4421473;32;34168;-50
2021/10/15 00:49:37;;;;;;;21.00;10.52;;;;;;;6.89;60.58;100659.78;4423094;32;35054;-52
2021/10/15 00:52:07;;;;;;;18.25;10.32;;;;;;;7.04;60.25;100663.66;4423082;32;33272;-52
2021/10/15 00:54:35;;;;;;;17.35;10.10;;;;;;;7.22;59.76;100655.53;4422890;32;33120;-51
2021/10/15 00:57:03;;;;;;;17.62;10.32;;;;;;;7.22;59.86;100646.06;4423221;32;34684;-49
2021/10/15 00:59:30;;;;;;;21.48;10.43;;;;;;;7.14;60.23;100649.25;4422908;32;34148;-50
2021/10/15 01:01:58;;;;;;;18.05;9.80;;;;;;;7.12;60.37;100643.16;4422900;32;33325;-50
2021/10/15 01:04:27;;;;;;;18.52;10.80;;;;;;;7.04;60.60;100644.66;4422893;32;34726;-52
2021/10/15 01:06:55;;;;;;;17.60;10.48;;;;;;;7.05;60.38;100652.47;4422905;32;35818;-50
2021/10/15 01:09:23;;;;;;;18.60;10.73;;;;;;;7.05;60.22;100647.31;4422848;32;34927;-54
2021/10/15 01:11:51;;;;;;;15.05;10.15;;;;;;;7.01;60.27;100639.44;4422878;32;34184;-51
2021/10/15 01:14:19;;;;;;;19.92;10.65;;;;;;;7.06;59.81;100637.84;4421648;32;33992;-52
2021/10/15 01:16:47;;;;;;;17.92;10.73;;;;;;;6.91;60.31;100638.28;4421892;32;35645;-50
2021/10/15 01:19:14;;;;;;;14.85;9.13;;;;;;;7.11;59.92;100625.88;4422756;32;34248;-53
2021/10/15 01:21:42;;;;;;;17.87;10.20;;;;;;;7.10;59.54;100627.63;4421658;32;33464;-52
2021/10/15 01:24:09;;;;;;;15.20;9.98;;;;;;;7.02;59.83;100625.62;4422686;32;34772;-52
2021/10/15 01:26:37;;;;;;;17.40;10.00;;;;;;;7.02;59.92;100621.34;4422740;32;35520;-50
2021/10/15 01:29:04;;;;;;;14.05;9.77;;;;;;;7.00;59.92;100625.62;4422650;32;34091;-51
2021/10/15 01:31:32;;;;;;;15.40;9.25;;;;;;;6.91;60.05;100622.78;4422717;32;34224;-51
2021/10/15 01:34:00;;;;;;;15.82;9.50;;;;;;;6.92;60.09;100618.50;4422678;32;34677;-51
2021/10/15 01:36:27;;;;;;;14.98;9.10;;;;;;;6.83;60.29;100616.50;4421475;32;35162;-51
2021/10/15 01:38:55;;;;;;;17.17;10.68;;;;;;;6.95;59.83;100614.25;4422766;32;35135;-52
2021/10/15 01:41:22;;;;;;;15.88;10.32;;;;;;;6.92;59.85;100616.75;4422939;32;34077;-49
2021/10/15 01:43:50;;;;;;;16.60;9.40;;;;;;;6.82;60.05;100622.53;4422639;32;34344;-53
2021/10/15 01:46:18;;;;;;;14.73;9.73;;;;;;;6.92;59.65;100605.56;4422569;32;34731;-50
2021/10/15 01:48:45;;;;;;;15.30;9.43;;;;;;;6.97;59.32;100607.41;4422445;32;34305;-49
2021/10/15 01:51:13;;;;;;;13.68;8.95;;;;;;;6.93;59.46;100608.19;4421398;32;32654;-53
2021/10/15 01:53:41;;;;;;;14.18;9.27;;;;;;;6.82;59.61;100605.28;4422610;32;33847;-52
2021/10/15 01:56:09;;;;;;;16.45;9.88;;;;;;;6.78;59.83;100606.03;4422562;32;34632;-51
2021/10/15 01:58:36;;;;;;;13.68;8.63;;;;;;;6.73;59.77;100605.03;4422650;32;34145;-50
2021/10/15 02:01:04;;;;;;;15.23;9.15;;;;;;;6.69;59.99;100595.47;4422573;32;34285;-51
2021/10/15 02:03:32;;;;;;;16.73;9.98;;;;;;;6.80;59.68;100595.72;4421986;32;33692;-49
2021/10/15 02:06:00;;;;;;;14.05;9.20;;;;;;;6.87;59.51;100595.06;4422300;32;35849;-54
2021/10/15 02:08:27;;;;;;;13.27;8.90;;;;;;;6.81;59.78;100600.09;4422659;32;34715;-50
2021/10/15 02:10:55;;;;;;;14.90;9.00;;;;;;;6.84;59.72;100597.59;4422436;32;33539;-49
2021/10/15 02:13:22;;;;;;;16.65;10.32;;;;;;;6.72;59.98;100594.66;4422375;32;34263;-53
2021/10/15 02:15:50;;;;;;;16.30;9.30;;;;;;;6.73;59.78;100597.28;4422329;32;35784;-50
2021/10/15 02:18:17;;;;;;;17.25;10.40;;;;;;;6.68;59.52;100595.44;4422249;32;34298;-53
2021/10/15 02:20:45;;;;;;;16.08;10.00;;;;;;;6.59;60.07;100588.28;4422608;32;33660;-55
2021/10/15 02:23:13;;;;;;;14.57;9.35;;;;;;;6.69;59.73;100594.56;4422343;32;33677;-49
2021/10/15 02:25:40;;;;;;;16.55;10.35;;;;;;;6.64;59.88;100590.97;4422385;32;36199;-50
2021/10/15 02:28:08;;;;;;;16.67;10.20;;;;;;;6.64;59.77;100588.41;4422305;32;35078;-52
2021/10/15 02:30:36;;;;;;;15.85;9.98;;;;;;;6.49;60.10;100596.59;4422158;32;34358;-51
2021/10/15 02:33:03;;;;;;;15.80;9.27;;;;;;;6.48;60.14;100583.63;4422236;32;33890;-51
2021/10/15 02:35:31;;;;;;;12.98;8.60;;;;;;;6.44;60.36;100580.06;4422156;32;34648;-50
2021/10/15 02:38:00;;;;;;;17.12;9.77;;;;;;;6.52;60.09;100581.19;4422062;32;34246;-54
2021/10/15 02:40:29;;;;;;;15.05;8.40;;;;;;;6.53;60.18;100587.22;4422165;32;33284;-50
2021/10/15 02:42:57;;;;;;;17.20;9.45;;;;;;;6.38;60.12;100581.62;4422126;32;34724;-53
2021/10/15 02:45:25;;;;;;;15.52;9.48;;;;;;;6.47;60.16;100584.47;4422042;32;35602;-52
2021/10/15 02:47:52;;;;;;;17.05;10.57;;;;;;;6.18;61.05;100573.28;4421768;32;35519;-49
2021/10/15 02:50:20;;;;;;;15.63;9.75;;;;;;;6.38;60.87;100576.44;4421963;32;34347;-51
2021/10/15 02:52:47;;;;;;;15.02;9.95;;;;;;;6.34;61.06;100579.78;4422053;32;34848;-52
2021/10/15 02:55:14;;;;;;;14.82;9.10;;;;;;;6.35;61.03;100573.75;4421907;32;35098;-49
2021/10/15 02:57:42;;;;;;;17.08;10.18;;;;;;;6.55;60.43;100582.97;4421884;32;34335;-55
2021/10/15 03:00:10;;;;;;;16.15;9.25;;;;;;;6.56;60.26;100582.16;4421893;32;33587;-50
2021/10/15 03:02:37;;;;;;;14.95;9.70;;;;;;;6.54;60.47;100588.97;4421886;32;34670;-50
2021/10/15 03:05:05;;;;;;;16.95;9.32;;;;;;;6.57;60.42;100589.06;4421663;32;34828;-50
2021/10/15 03:07:34;;;;;;;17.10;9.38;;;;;;;6.53;60.61;100588.12;4421825;32;34270;-53
2021/10/15 03:10:05;;;;;;;15.63;10.55;;;;;;;6.43;60.71;100587.78;4421716;32;33448;-50
2021/10/15 03:12:32;;;;;;;15.57;9.65;;;;;;;6.27;61.06;100593.34;4421955;32;35325;-51
2021/10/15 03:14:59;;;;;;;17.90;9.88;;;;;;;6.52;60.27;100591.53;4422558;32;34700;-52
2021/10/15 03:17:27;;;;;;;17.30;9.98;;;;;;;6.22;61.22;100589.75;4423660;32;34368;-55
2021/10/15 03:19:54;;;;;;;17.90;10.32;;;;;;;6.42;60.78;100583.47;4423721;32;33248;-51
2021/10/15 03:22:22;;;;;;;18.08;10.20;;;;;;;6.47;60.28;100587.03;4422439;32;34694;-49
2021/10/15 03:24:50;;;;;;;16.15;9.88;;;;;;;6.33;60.29;100588.34;4423588;32;35775;-50
2021/10/15 03:27:17;;;;;;;13.77;9.77;;;;;;;6.33;60.26;100581.47;4423670;32;34214;-49
2021/10/15 03:29:44;;;;;;;14.32;10.00;;;;;;;6.43;60.10;100586.09;4423603;32;33223;-53
2021/10/15 03:32:12;;;;;;;15.88;9.50;;;;;;;6.37;59.96;100580.72;4423568;32;33745;-49
2021/10/15 03:34:39;;;;;;;14.55;8.35;;;;;;;6.25;60.19;100582.09;4423564;32;35499;-50
2021/10/15 03:37:07;;;;;;;14.13;9.50;;;;;;;6.38;59.70;100584.19;4423571;32;34334;-52
2021/10/15 03:39:35;;;;;;;16.67;10.02;;;;;;;6.24;59.84;100581.22;4423664;32;33401;-49
2021/10/15 03:42:02;;;;;;;15.50;9.73;;;;;;;6.31;59.82;100574.53;4423856;32;33906;-52
2021/10/15 03:44:30;;;;;;;17.37;10.15;;;;;;;6.23;60.15;100573.44;4423451;32;35713;-54
2021/10/15 03:46:57;;;;;;;18.15;9.52;;;;;;;6.22;59.99;100572.56;4423502;32;34407;-49
2021/10/15 03:49:25;;;;;;;18.08;9.05;;;;;;;6.08;60.47;100572.16;4423650;32;34351;-54
2021/10/15 03:51:52;;;;;;;16.42;9.25;;;;;;;6.14;60.20;100574.03;4423383;32;34778;-51
2021/10/15 03:54:20;;;;;;;17.17;9.30;;;;;;;6.28;59.86;100570.13;4423423;32;34738;-49
2021/10/15 03:56:47;;;;;;;15.80;9.65;;;;;;;6.24;59.77;100577.75;4423571;32;34221;-49
2021/10/15 03:59:15;;;;;;;17.70;9.23;;;;;;;6.10;59.97;100574.78;4423405;32;34361;-50
2021/10/15 04:01:42;;;;;;;16.30;10.02;;;;;;;6.14;60.11;100577.50;4422410;32;33447;-49
2021/10/15 04:04:10;;;;;;;15.35;9.30;;;;;;;5.93;60.67;100576.84;4423434;32;34615;-50
2021/10/15 04:06:38;;;;;;;15.52;9.57;;;;;;;5.88;60.80;100568.09;4423371;32;34234;-50
2021/10/15 04:09:06;;;;;;;13.95;9.55;;;;;;;5.91;60.68;100565.59;4423674;32;33487;-53
2021/10/15 04:11:34;;;;;;;15.85;9.13;;;;;;;6.02;60.32;100566.78;4421969;32;33283;-53
2021/10/15 04:14:02;;;;;;;13.80;8.57;;;;;;;6.10;60.24;100565.34;4423266;32;35605;-52
2021/10/15 04:16:29;;;;;;;13.25;8.77;;;;;;;6.25;59.83;100569.19;4423324;32;35055;-51
2021/10/15 04:18:57;;;;;;;15.32;8.50;;;;;;;6.01;60.37;100567.62;4423368;32;33403;-50
2021/10/15 04:21:24;;;;;;;15.20;8.68;;;;;;;6.14;59.96;100566.28;4423351;32;33705;-52
2021/10/15 04:23:52;;;;;;;16.33;9.00;;;;;;;6.03;60.33;100558.22;4423258;32;34804;-53
2021/10/15 04:26:20;;;;;;;14.48;9.13;;;;;;;6.09;60.18;100568.72;4422902;32;35160;-50
2021/10/15 04:28:47;;;;;;;13.65;8.05;;;;;;;6.13;59.97;100560.22;4423278;32;34514;-49
2021/10/15 04:31:15;;;;;;;13.10;8.32;;;;;;;5.91;60.72;100565.59;4423234;32;33633;-52
2021/10/15 04:33:43;;;;;;;15.55;9.25;;;;;;;6.08;60.08;100561.84;4422199;32;34658;-50
2021/10/15 04:36:10;;;;;;;18.08;8.65;;;;;;;6.09;60.14;100553.22;4423080;32;35166;-50
2021/10/15 04:38:38;;;;;;;14.57;8.35;;;;;;;6.04;60.22;100548.75;4422067;32;34417;-49
2021/10/15 04:41:05;;;;;;;13.62;8.65;;;;;;;6.11;59.87;100561.00;4423110;32;33975;-49
2021/10/15 04:43:33;;;;;;;13.62;8.93;;;;;;;6.11;59.65;100548.09;4423078;32;35876;-50
2021/10/15 04:46:00;;;;;;;13.73;8.77;;;;;;;5.89;60.19;100554.38;4423039;32;34253;-51
2021/10/15 04:48:28;;;;;;;17.12;9.40;;;;;;;5.96;59.78;100560.59;4422968;32;34231;-54
2021/10/15 04:50:56;;;;;;;14.07;8.65;;;;;;;5.98;59.58;100562.37;4423009;32;34640;-51
2021/10/15 04:53:23;;;;;;;13.45;8.45;;;;;;;5.91;59.94;100565.59;4423057;32;35808;-51
2021/10/15 04:55:52;;;;;;;16.17;8.73;;;;;;;5.80;60.34;100566.94;4423139;32;35172;-52
2021/10/15 04:58:19;;;;;;;16.75;8.32;;;;;;;5.87;60.03;100565.47;4421937;32;33337;-50
2021/10/15 05:00:46;;;;;;;12.05;8.10;;;;;;;6.01;59.71;100559.00;4423045;32;33684;-54
2021/10/15 05:03:14;;;;;;;13.30;9.07;;;;;;;5.78;60.39;100559.97;4423008;32;35801;-49
2021/10/15 05:05:42;;;;;;;13.68;9.30;;;;;;;5.96;60.01;100561.47;4422978;32;34804;-51
2021/10/15 05:08:11;;;;;;;14.15;9.50;;;;;;;5.97;59.58;100554.56;4423131;32;34321;-49
2021/10/15 05:10:41;;;;;;;13.93;9.00;;;;;;;5.92;59.54;100549.28;4422923;32;34739;-54
2021/10/15 05:13:10;;;;;;;13.57;8.73;;;;;;;5.76;60.00;100547.03;4423274;32;35464;-51
2021/10/15 05:15:38;;;;;;;15.55;8.60;;;;;;;5.91;59.79;100532.03;4422937;32;35287;-49
2021/10/15 05:18:06;;;;;;;15.80;9.27;;;;;;;5.89;59.98;100540.56;4422063;32;34220;-53
2021/10/15 05:20:34;;;;;;;13.77;8.65;;;;;;;5.70;60.30;100543.38;4409254;32;34321;-54
2021/10/15 05:23:01;;;;;;;14.43;9.18;;;;;;;5.87;60.01;100542.25;4422885;32;35262;-50
2021/10/15 05:25:29;;;;;;;15.38;9.88;;;;;;;5.78;60.56;100536.72;4422786;32;34318;-50
2021/10/15 05:27:56;;;;;;;16.48;9.70;;;;;;;5.71;60.65;100547.69;4422936;32;33437;-50
2021/10/15 05:30:24;;;;;;;15.98;10.32;;;;;;;5.59;61.22;100550.78;4422868;32;33695;-54
2021/10/15 05:32:51;;;;;;;18.15;10.27;;;;;;;5.63;61.33;100546.59;4423018;32;35756;-52
2021/10/15 05:35:19;;;;;;;14.57;9.18;;;;;;;5.73;61.04;100541.75;4422781;32;34298;-55
2021/10/15 05:37:47;;;;;;;20.17;10.15;;;;;;;5.96;60.79;100540.81;4422016;32;33322;-50
2021/10/15 05:40:15;;;;;;;14.23;9.45;;;;;;;5.92;61.02;100540.69;4422923;32;33688;-50
2021/10/15 05:42:49;;;;;;;20.15;13.60;;;;;;;5.85;61.34;100542.16;4422832;32;35369;-50
2021/10/15 05:45:17;;;;;;;24.08;12.65;;;;;;;6.20;60.77;100534.59;4422648;32;34614;-53
2021/10/15 05:47:44;;;;;;;23.17;13.52;;;;;;;6.30;60.75;100534.88;4422990;32;33696;-51
2021/10/15 05:50:12;;;;;;;23.10;15.10;;;;;;;6.28;60.90;100533.09;4422907;32;33967;-51
2021/10/15 05:52:43;;;;;;;27.73;19.67;;;;;;;6.44;60.51;100532.72;4422487;32;34683;-51
2021/10/15 06:00:25;;;;;;;22.67;12.68;;;;;;;6.88;60.15;100519.25;4422718;32;33861;-49
2021/10/15 06:02:53;;;;;;;20.50;12.80;;;;;;;7.11;59.78;100517.22;4421330;32;35157;-50
2021/10/15 06:16:12;;;;;;;16.48;8.80;;;;;;;7.93;58.29;100530.41;4422476;32;35353;-51
2021/10/15 06:18:41;;;;;;;14.50;9.38;;;;;;;8.09;57.77;100528.19;4421369;32;33851;-50
2021/10/15 06:21:08;;;;;;;13.68;8.55;;;;;;;8.17;58.15;100525.75;4421656;32;33974;-50
2021/10/15 06:23:35;;;;;;;16.35;9.23;;;;;;;8.35;57.78;100526.16;4419504;32;35729;-55
2021/10/15 06:26:03;;;;;;;15.70;9.55;;;;;;;8.46;57.70;100522.03;4407421;32;34497;-51
2021/10/15 06:28:31;;;;;;;18.83;10.38;;;;;;;8.72;56.96;100520.81;4418660;32;33395;-54
2021/10/15 06:30:58;;;;;;;17.52;9.73;;;;;;;8.80;56.89;100516.66;4411630;32;34393;-50
2021/10/15 06:33:26;;;;;;;17.50;9.82;;;;;;;8.85;56.86;100522.81;4421159;32;34926;-50
2021/10/15 06:35:54;;;;;;;13.27;9.00;;;;;;;8.92;57.23;100520.31;4421898;32;35222;-51
2021/10/15 06:38:21;;;;;;;14.87;8.60;;;;;;;9.09;56.94;100518.87;4417090;32;33404;-50
2021/10/15 06:40:49;;;;;;;15.52;8.65;;;;;;;9.02;57.60;100514.44;4422410;32;33881;-52
2021/10/15 06:43:16;;;;;;;14.55;9.02;;;;;;;9.38;57.01;100515.06;4417008;32;35106;-50
2021/10/15 06:45:44;;;;;;;15.68;9.15;;;;;;;9.37;57.50;100526.28;4421281;32;34366;-51
2021/10/15 06:48:11;;;;;;;13.88;8.90;;;;;;;9.51;57.33;100523.06;4421849;32;34259;-52
2021/10/15 06:50:39;;;;;;;15.40;9.02;;;;;;;9.68;57.21;100528.50;4421476;32;34526;-52
2021/10/15 06:53:10;;;;;;;16.80;9.13;;;;;;;9.54;58.11;100514.44;4417866;32;34430;-53
2021/10/15 06:55:38;;;;;;;12.35;8.50;;;;;;;9.85;58.79;100515.75;4421365;32;34318;-54
2021/10/15 06:58:06;;;;;;;12.43;8.70;;;;;;;9.96;60.60;100519.41;4422160;32;33424;-49
2021/10/15 07:00:33;;;;;;;18.12;10.10;;;;;;;10.37;57.39;100513.00;4421284;32;34636;-52
2021/10/15 07:03:01;;;;;;;22.45;12.40;;;;;;;10.45;56.74;100511.37;4421631;32;35709;-53
2021/10/15 07:05:29;;;;;;;17.85;10.88;;;;;;;10.34;56.40;100512.13;4407948;32;35284;-51
2021/10/15 07:07:57;;;;;;;17.80;12.10;;;;;;;10.38;55.89;100519.09;4421220;32;33595;-51
2021/10/15 07:10:25;;;;;;;17.67;10.52;;;;;;;10.54;55.44;100511.47;4421284;32;34689;-51
2021/10/15 07:12:53;;;;;;;17.50;11.35;;;;;;;10.90;55.02;100516.19;4421025;32;35525;-50
2021/10/15 07:15:21;;;;;;;15.93;10.80;;;;;;;11.05;54.02;100508.53;4422011;32;34699;-50
2021/10/15 07:17:48;;;;;;;16.08;10.40;;;;;;;11.06;53.71;100505.06;4420779;32;33242;-51
2021/10/15 07:20:16;;;;;;;16.40;10.77;;;;;;;11.02;54.26;100505.03;4422008;32;33939;-53
2021/10/15 07:22:43;;;;;;;18.12;11.82;;;;;;;11.05;54.56;100505.94;4420968;32;35338;-57
2021/10/15 07:25:11;;;;;;;19.02;11.02;;;;;;;11.05;54.32;100500.75;4421667;32;34346;-50
2021/10/15 07:27:39;;;;;;;20.30;12.02;;;;;;;10.80;55.26;100511.75;4421576;32;33968;-50
2021/10/15 07:30:08;;;;;;;19.77;12.98;;;;;;;11.12;54.62;100509.47;4421667;32;34194;-52
2021/10/15 07:32:35;;;;;;;21.80;12.23;;;;;;;11.41;54.17;100510.59;4421779;32;34762;-50
2021/10/15 07:35:04;;;;;;;21.08;12.90;;;;;;;11.43;54.34;100509.69;4420400;32;34262;-51
2021/10/15 07:37:32;;;;;;;22.65;12.93;;;;;;;11.67;53.87;100508.16;4421537;32;33334;-50
2021/10/15 07:39:59;;;;;;;18.40;12.63;;;;;;;11.62;53.88;100510.72;4420068;32;33295;-53
2021/10/15 07:42:27;;;;;;;20.48;13.95;;;;;;;11.72;53.80;100516.91;4420335;32;34711;-50
2021/10/15 07:44:54;;;;;;;25.30;13.65;;;;;;;12.02;53.11;100509.25;4421506;32;34220;-56
2021/10/15 07:47:22;;;;;;;20.85;12.60;;;;;;;11.98;53.36;100510.12;4421315;32;33536;-51
2021/10/15 07:49:49;;;;;;;22.65;13.60;;;;;;;12.06;53.45;100514.50;4421551;32;33972;-51
2021/10/15 07:52:17;;;;;;;19.98;13.62;;;;;;;12.08;53.62;100512.78;4421273;32;34735;-50
2021/10/15 07:54:44;;;;;;;18.45;12.52;;;;;;;12.32;52.84;100514.59;4420959;32;34559;-50
2021/10/15 07:57:13;;;;;;;23.67;14.43;;;;;;;12.32;53.33;100512.00;4421210;32;34119;-54
2021/10/15 07:59:40;;;;;;;22.02;14.95;;;;;;;12.66;53.17;100508.66;4419897;32;34855;-50
2021/10/15 08:02:09;;;;;;;28.80;14.65;;;;;;;12.87;52.04;100498.25;4417963;32;34812;-52
2021/10/15 08:04:37;;;;;;;22.42;14.77;;;;;;;12.47;53.29;100506.84;4423411;32;35288;-51
2021/10/15 08:07:09;;;;;;;18.95;13.62;;;;;;;12.61;53.29;100507.75;4423543;32;33453;-52
2021/10/15 08:09:36;;;;;;;24.50;14.80;;;;;;;12.67;53.14;100510.38;4423371;32;34620;-51
2021/10/15 08:12:04;;;;;;;23.45;15.43;;;;;;;12.85;52.62;100517.38;4423537;32;34670;-49
2021/10/15 08:14:32;;;;;;;23.80;14.35;;;;;;;12.93;52.38;100512.19;4423521;32;35175;-54
2021/10/15 08:16:59;;;;;;;22.60;15.10;;;;;;;13.13;51.72;100515.72;4423431;32;33416;-50
2021/10/15 08:19:38;;;;;;;22.25;15.18;;;;;;;13.31;52.14;100506.13;4423514;32;33867;-53
2021/10/15 08:22:07;;;;;;;21.42;14.57;;;;;;;13.41;52.06;100507.00;4423255;32;35202;-50
2021/10/15 08:24:35;;;;;;;22.17;13.95;;;;;;;13.53;51.08;100507.00;4423294;32;34902;-52
2021/10/15 08:27:04;;;;;;;22.27;14.43;;;;;;;13.65;49.71;100504.38;4423540;32;34185;-51
2021/10/15 08:29:37;;;;;;;21.20;13.55;;;;;;;13.77;48.92;100500.84;4396893;32;33189;-50
2021/10/15 08:32:05;;;;;;;18.20;12.52;;;;;;;13.87;48.15;100495.63;4423243;32;35741;-50
2021/10/15 08:34:33;;;;;;;19.27;12.65;;;;;;;13.95;49.55;100501.69;4423145;32;34224;-49
2021/10/15 08:37:01;;;;;;;19.73;12.43;;;;;;;14.10;47.40;100501.66;4423404;32;34342;-51
2021/10/15 08:39:29;;;;;;;17.75;12.20;;;;;;;14.31;46.92;100505.09;4423326;32;33908;-49
2021/10/15 08:41:58;;;;;;;19.17;13.13;;;;;;;14.42;46.56;100498.06;4423103;32;35664;-49
2021/10/15 08:44:36;;;;;;;15.65;12.02;;;;;;;14.51;46.29;100493.66;4423190;32;34488;-49
2021/10/15 08:47:05;;;;;;;16.45;12.02;;;;;;;14.57;46.18;100498.00;4423094;32;34473;-51
2021/10/15 08:49:53;;;;;;;13.68;10.27;;;;;;;14.64;45.59;100491.84;4422850;32;33627;-50
2021/10/15 08:52:20;;;;;;;15.07;10.48;;;;;;;14.53;45.60;100485.78;4423171;32;34633;-49
2021/10/15 08:54:48;;;;;;;15.13;10.35;;;;;;;14.74;44.63;100491.78;4409222;32;34436;-50
2021/10/15 08:57:15;;;;;;;15.50;11.65;;;;;;;14.80;45.08;100475.16;4423070;32;33330;-54
2021/10/15 08:59:46;;;;;;;16.55;11.57;;;;;;;14.81;45.66;100487.34;4423120;32;33814;-52
2021/10/15 09:02:22;;;;;;;15.35;11.05;;;;;;;15.00;44.82;100488.97;4423439;32;35647;-49
2021/10/15 09:04:53;;;;;;;16.30;10.45;;;;;;;14.88;44.16;100483.84;4409638;32;35195;-50
2021/10/15 09:07:22;;;;;;;16.83;10.00;;;;;;;14.84;43.89;100479.50;4409461;32;33468;-49
2021/10/15 09:10:06;;;;;;;12.63;9.57;;;;;;;15.02;45.04;100481.13;4422984;32;33838;-51
2021/10/15 09:12:45;;;;;;;13.80;9.93;;;;;;;14.97;43.24;100470.69;4421825;32;35708;-52
2021/10/15 09:15:13;;;;;;;15.90;9.90;;;;;;;14.96;43.03;100476.78;4409253;32;34167;-50
2021/10/15 09:17:52;;;;;;;13.18;9.20;;;;;;;14.85;43.08;100468.16;4422858;32;33313;-51
2021/10/15 09:20:30;;;;;;;13.55;9.25;;;;;;;14.92;42.91;100459.38;4423083;32;33793;-52
2021/10/15 09:23:12;;;;;;;13.77;8.82;;;;;;;14.82;43.42;100462.91;4410634;32;35811;-49
2021/10/15 09:25:43;;;;;;;13.95;9.85;;;;;;;14.94;42.90;100457.59;4409309;32;34355;-49
2021/10/15 09:28:19;;;;;;;13.30;10.00;;;;;;;15.11;42.46;100462.72;4423026;32;33521;-50
2021/10/15 09:30:50;;;;;;;12.68;9.43;;;;;;;14.77;43.61;100460.34;4409572;32;34835;-50
2021/10/15 09:33:19;;;;;;;15.27;10.07;;;;;;;14.45;44.27;100450.94;4422851;32;35023;-49
2021/10/15 09:35:46;;;;;;;15.68;9.45;;;;;;;14.78;42.91;100446.38;4423174;32;34333;-49
2021/10/15 09:38:14;;;;;;;13.02;8.98;;;;;;;14.90;43.17;100442.78;4422982;32;33665;-50
2021/10/15 09:40:45;;;;;;;11.23;8.85;;;;;;;15.11;42.86;100439.12;4423246;32;33985;-50
2021/10/15 09:43:14;;;;;;;13.62;8.95;;;;;;;15.06;42.05;100439.16;4422769;32;35107;-50
2021/10/15 09:45:45;;;;;;;14.00;9.20;;;;;;;15.12;41.99;100430.41;4422865;32;34247;-55
2021/10/15 09:48:29;;;;;;;13.37;8.37;;;;;;;14.98;43.50;100435.72;4422812;32;33603;-55
2021/10/15 09:51:10;;;;;;;13.82;9.15;;;;;;;15.11;42.41;100433.87;4423073;32;34761;-51
2021/10/15 09:53:38;;;;;;;13.93;10.00;;;;;;;15.36;42.90;100430.16;4422969;32;34882;-50
2021/10/15 09:56:06;;;;;;;12.98;9.85;;;;;;;15.44;42.11;100429.25;4422733;32;34306;-49
2021/10/15 09:58:34;;;;;;;12.18;9.20;;;;;;;15.29;42.66;100426.72;4422783;32;33895;-50
2021/10/15 10:01:01;;;;;;;16.20;10.27;;;;;;;15.33;42.17;100423.19;4422762;32;33801;-53
2021/10/15 10:03:29;;;;;;;15.13;10.27;;;;;;;15.40;41.45;100422.25;4422408;32;35718;-53
2021/10/15 10:05:57;;;;;;;14.40;9.85;;;;;;;15.41;40.59;100410.88;4422422;32;34957;-54
2021/10/15 10:08:25;;;;;;;12.57;9.05;;;;;;;15.35;42.86;100416.19;4408970;32;33264;-49
2021/10/15 10:10:52;;;;;;;12.43;8.77;;;;;;;15.45;42.16;100417.00;4408942;32;34448;-54
2021/10/15 10:13:20;;;;;;;13.60;9.40;;;;;;;15.73;41.70;100404.47;4422538;32;34858;-51
2021/10/15 10:15:48;;;;;;;12.88;9.90;;;;;;;15.73;41.89;100407.09;4422675;32;34198;-52
2021/10/15 10:21:19;;;;;;;15.20;10.90;;;;;;;15.71;43.77;100398.38;4414428;32;33862;-49
2021/10/15 10:24:00;;;;;;;12.60;9.25;;;;;;;15.83;41.42;100398.22;4408379;32;34759;-53
2021/10/15 10:26:27;;;;;;;14.87;9.23;;;;;;;15.85;42.04;100393.81;4408722;32;34266;-50
2021/10/15 10:29:04;;;;;;;12.98;9.68;;;;;;;16.04;41.12;100395.34;4408611;32;33095;-51
2021/10/15 10:31:32;;;;;;;14.07;8.60;;;;;;;15.88;40.08;100394.66;4420732;32;34368;-50
2021/10/15 10:34:05;;;;;;;16.98;10.57;;;;;;;16.09;40.45;100383.03;4422011;32;35128;-48
2021/10/15 10:36:34;;;;;;;12.10;8.73;;;;;;;15.97;41.30;100375.31;4408385;32;34321;-48
2021/10/15 10:39:26;;;;;;;12.07;8.32;;;;;;;15.94;42.02;100372.72;4408288;32;33980;-49
2021/10/15 10:42:02;;;;;;;11.75;8.40;;;;;;;16.04;41.38;100374.34;4414620;32;33826;-48
2021/10/15 10:44:50;;;;;;;11.45;8.00;;;;;;;16.18;42.06;100367.16;4422232;32;34643;-50
2021/10/15 10:47:18;;;;;;;11.20;8.30;;;;;;;16.36;40.87;100364.25;4421097;32;35069;-49
2021/10/15 10:50:02;;;;;;;10.32;7.97;;;;;;;16.59;40.96;100356.06;4422291;32;34618;-51
2021/10/15 10:52:31;;;;;;;10.70;9.05;;;;;;;16.88;39.64;100359.94;4421784;32;33920;-50
2021/10/15 10:54:58;;;;;;;13.57;9.02;;;;;;;17.23;38.21;100361.09;4421907;32;34710;-48
2021/10/15 10:57:30;;;;;;;13.20;8.70;;;;;;;17.17;37.56;100348.06;4408038;32;33676;-48
2021/10/15 11:00:22;;;;;;;15.00;9.15;;;;;;;17.02;37.06;100343.09;4408251;32;33605;-49
2021/10/15 11:02:55;;;;;;;13.35;9.35;;;;;;;17.07;37.49;100341.25;4422086;32;33906;-52
2021/10/15 11:05:29;;;;;;;14.90;10.38;;;;;;;17.02;38.15;100340.47;4415747;32;35322;-48
2021/10/15 11:08:29;;;;;;;14.73;10.32;;;;;;;17.13;38.18;100330.62;4421944;32;34854;-49
2021/10/15 11:11:22;;;;;;;11.95;9.30;;;;;;;16.96;38.35;100336.19;4404230;32;33704;-53
2021/10/15 11:13:50;;;;;;;9.45;7.68;;;;;;;16.90;38.10;100334.50;4407247;32;34314;-49
2021/10/15 11:16:25;;;;;;;15.48;10.60;;;;;;;16.95;41.79;100325.69;4421106;32;35104;-55
2021/10/15 11:18:54;;;;;;;12.05;9.65;;;;;;;16.83;39.18;100326.75;4421910;32;34812;-48
2021/10/15 11:21:22;;;;;;;11.25;6.85;;;;;;;16.93;38.61;100321.31;4407335;32;33715;-48
2021/10/15 11:23:52;;;;;;;15.95;9.93;;;;;;;16.84;40.92;100321.50;4421657;32;34757;-51
2021/10/15 11:26:40;;;;;;;14.75;10.68;;;;;;;16.93;40.39;100317.81;4421398;32;35063;-48
2021/10/15 11:29:07;;;;;;;16.27;12.20;;;;;;;17.25;39.07;100312.00;4421764;32;35075;-49
2021/10/15 11:31:35;;;;;;;16.50;11.75;;;;;;;17.03;39.00;100308.03;4407343;32;32753;-48
2021/10/15 11:34:13;;;;;;;17.45;11.93;;;;;;;17.07;39.81;100304.47;4421593;32;34754;-49
2021/10/15 11:36:41;;;;;;;14.63;11.35;;;;;;;17.13;38.64;100299.94;4409452;32;35846;-49
2021/10/15 11:39:08;;;;;;;17.50;10.90;;;;;;;17.14;38.42;100300.81;4423755;32;34372;-49
2021/10/15 11:41:49;;;;;;;16.95;11.43;;;;;;;17.13;38.99;100294.69;4424047;32;33475;-49
2021/10/15 11:44:36;;;;;;;16.25;11.73;;;;;;;17.08;38.64;100291.28;4423712;32;34573;-48
2021/10/15 11:47:09;;;;;;;14.50;11.12;;;;;;;16.87;38.47;100287.31;4423605;32;34762;-49